Time;durP1;ratioP1;P1;durP2;ratioP2;P2;SDS_P1;SDS_P2;PMS_P1;PMS_P2;Temp;Humidity;BMP_temperature;BMP_pressure;BME280_temperature;BME280_humidity;BME280_pressure;Samples;Min_cycle;Max_cycle;Signal;HPM_P1;HPM_P2
2022/05/29 00:00:50;;;;;;;8.98;1.10;;;;;;;18.05;33.78;98196.91;5091591;28;20440;-48
2022/05/29 00:03:16;;;;;;;9.07;2.05;;;;;;;18.28;33.63;98200.16;5091541;28;20032;-48
2022/05/29 00:05:43;;;;;;;7.10;1.40;;;;;;;18.32;33.36;98183.41;5091519;28;20051;-48
2022/05/29 00:08:14;;;;;;;6.32;1.48;;;;;;;18.10;33.48;98196.91;5091430;28;20077;-49
2022/05/29 00:10:41;;;;;;;5.32;1.30;;;;;;;17.94;33.87;98189.97;5092746;28;20393;-48
2022/05/29 00:13:07;;;;;;;8.35;1.63;;;;;;;17.81;34.07;98193.88;5091246;28;20077;-48
2022/05/29 00:15:34;;;;;;;6.18;1.40;;;;;;;17.76;34.30;98194.63;5092620;28;20035;-50
2022/05/29 00:18:00;;;;;;;5.47;1.00;;;;;;;17.88;34.04;98191.00;5092922;28;20049;-51
2022/05/29 00:20:26;;;;;;;7.25;1.20;;;;;;;17.97;33.84;98189.44;5091190;28;20024;-50
2022/05/29 00:22:54;;;;;;;13.50;1.70;;;;;;;18.02;33.85;98199.28;5092518;28;20028;-50
2022/05/29 00:25:20;;;;;;;7.38;1.55;;;;;;;18.11;33.52;98187.91;5092444;28;20024;-49
2022/05/29 00:27:46;;;;;;;4.72;0.98;;;;;;;17.99;33.63;98186.50;5092408;28;20375;-49
2022/05/29 00:30:13;;;;;;;4.57;1.00;;;;;;;18.01;33.97;98192.34;5092348;28;20107;-51
2022/05/29 00:32:39;;;;;;;3.90;1.05;;;;;;;17.96;33.71;98182.53;5092193;28;20056;-51
2022/05/29 00:35:05;;;;;;;8.38;1.58;;;;;;;17.89;34.02;98188.09;5092259;28;20374;-50
2022/05/29 00:37:37;;;;;;;8.88;1.63;;;;;;;17.88;34.29;98180.38;5092269;28;20102;-50
2022/05/29 00:40:27;;;;;;;15.73;2.08;;;;;;;18.13;34.31;98177.03;5090965;28;20024;-50
2022/05/29 00:42:53;;;;;;;5.20;1.13;;;;;;;18.30;33.66;98177.56;5092316;28;20532;-50
2022/05/29 00:45:21;;;;;;;18.70;2.22;;;;;;;18.28;33.55;98182.34;5090810;28;20106;-51
2022/05/29 00:47:47;;;;;;;6.40;1.75;;;;;;;18.08;33.73;98184.97;5091285;28;20032;-51
2022/05/29 00:50:18;;;;;;;10.15;1.75;;;;;;;17.88;34.42;98185.69;5090751;28;20031;-50
2022/05/29 00:52:44;;;;;;;21.75;1.90;;;;;;;17.72;34.46;98180.28;5092152;28;20039;-50
2022/05/29 00:55:19;;;;;;;5.90;1.33;;;;;;;17.76;34.61;98178.69;5092045;28;20102;-51
2022/05/29 00:57:59;;;;;;;7.95;2.50;;;;;;;17.60;34.81;98176.25;5092105;28;20030;-50
2022/05/29 01:00:28;;;;;;;10.98;1.45;;;;;;;17.42;34.84;98180.13;5091998;28;20059;-50
2022/05/29 01:02:56;;;;;;;10.52;1.67;;;;;;;17.30;35.20;98186.44;5090632;28;20052;-50
2022/05/29 01:05:25;;;;;;;6.22;1.98;;;;;;;17.35;35.18;98175.88;5091875;28;20032;-51
2022/05/29 01:07:56;;;;;;;9.50;2.10;;;;;;;17.64;34.97;98180.78;5090804;28;20032;-50
2022/05/29 01:10:32;;;;;;;5.18;2.03;;;;;;;17.65;34.80;98173.63;5090585;28;20532;-51
2022/05/29 01:13:06;;;;;;;2.58;1.10;;;;;;;17.46;35.01;98166.09;5091821;28;20028;-50
2022/05/29 01:15:34;;;;;;;9.02;1.48;;;;;;;17.16;35.54;98170.19;5091785;28;20045;-50
2022/05/29 01:18:08;;;;;;;15.65;2.05;;;;;;;17.30;35.77;98161.78;5091802;28;20497;-50
2022/05/29 01:21:00;;;;;;;4.03;1.15;;;;;;;17.34;35.67;98163.69;5091852;28;20028;-50
2022/05/29 01:23:39;;;;;;;8.63;1.77;;;;;;;17.29;35.87;98166.28;5090474;28;20077;-50
2022/05/29 01:26:50;;;;;;;5.60;1.33;;;;;;;17.14;36.06;98156.41;5091961;28;20058;-49
2022/05/29 01:29:21;;;;;;;13.05;1.90;;;;;;;17.22;36.33;98157.75;5076128;28;20505;-50
2022/05/29 01:32:05;;;;;;;8.73;1.52;;;;;;;17.41;35.97;98162.63;5090149;28;20551;-50
2022/05/29 01:34:49;;;;;;;12.65;2.50;;;;;;;17.01;36.49;98159.47;5090337;28;20063;-50
2022/05/29 01:37:29;;;;;;;5.40;1.33;;;;;;;16.98;36.88;98149.38;5091623;28;20050;-51
2022/05/29 01:40:10;;;;;;;11.05;2.70;;;;;;;17.22;36.57;98147.13;5090328;28;20390;-51
2022/05/29 01:43:02;;;;;;;6.13;1.33;;;;;;;17.63;36.10;98150.00;5091666;28;20024;-51
2022/05/29 01:45:53;;;;;;;7.68;1.42;;;;;;;17.92;35.49;98147.72;5067703;28;20085;-50
2022/05/29 01:48:27;;;;;;;9.73;1.40;;;;;;;18.09;35.31;98142.22;5091556;28;20032;-50
2022/05/29 01:50:57;;;;;;;10.20;1.52;;;;;;;18.16;35.28;98142.75;5090224;28;20036;-50
2022/05/29 01:53:38;;;;;;;7.63;1.67;;;;;;;18.30;35.04;98136.94;5090156;28;20103;-51
2022/05/29 01:56:18;;;;;;;6.25;1.40;;;;;;;18.18;35.11;98137.19;5091501;28;20505;-51
2022/05/29 01:58:53;;;;;;;4.05;1.33;;;;;;;18.10;35.17;98143.78;5092475;28;20028;-50
2022/05/29 02:01:26;;;;;;;5.35;1.25;;;;;;;17.60;35.84;98145.19;5095366;28;20034;-50
2022/05/29 02:03:56;;;;;;;5.57;1.80;;;;;;;17.40;36.59;98150.41;5094012;28;20439;-51
2022/05/29 02:07:47;;;;;;;5.50;1.40;;;;;;;17.31;36.50;98150.91;5095119;28;20024;-50
2022/05/29 02:09:20;;;;;;;5.53;1.90;;;;;;;16.92;37.13;98151.22;5094961;28;20067;-50
2022/05/29 02:11:50;;;;;;;12.60;1.88;;;;;;;16.84;37.58;98150.88;5095086;28;20103;-51
2022/05/29 02:14:23;;;;;;;3.97;1.50;;;;;;;16.85;37.58;98155.91;5094880;28;20101;-51
2022/05/29 02:17:04;;;;;;;12.00;5.03;;;;;;;16.60;37.96;98151.19;5093628;28;20429;-50
2022/05/29 02:19:33;;;;;;;18.10;7.55;;;;;;;16.63;38.14;98152.53;5076779;28;20038;-51
2022/05/29 02:22:31;;;;;;;8.50;4.70;;;;;;;16.89;37.88;98146.41;5094789;28;20024;-50
2022/05/29 02:25:21;;;;;;;25.83;4.50;;;;;;;17.04;37.88;98142.25;5049071;28;20123;-51
2022/05/29 02:28:10;;;;;;;17.35;3.47;;;;;;;17.08;37.78;98140.69;5094238;28;20040;-51
2022/05/29 02:30:52;;;;;;;6.28;1.33;;;;;;;17.13;37.82;98132.78;5094451;28;20577;-51
2022/05/29 02:33:53;;;;;;;14.75;2.95;;;;;;;17.15;37.65;98134.13;5094553;28;20432;-51
2022/05/29 02:36:50;;;;;;;19.27;2.60;;;;;;;17.06;38.03;98134.84;5083543;28;20047;-51
2022/05/29 02:39:25;;;;;;;7.13;1.25;;;;;;;16.96;38.23;98135.56;5094509;28;20031;-51
2022/05/29 02:42:14;;;;;;;8.32;1.15;;;;;;;16.92;38.30;98134.50;5094490;28;20023;-51
2022/05/29 02:45:05;;;;;;;13.55;1.70;;;;;;;16.78;38.33;98139.38;5094477;28;20107;-51
2022/05/29 02:47:49;;;;;;;20.52;2.90;;;;;;;16.81;38.32;98141.59;5094683;28;20474;-51
2022/05/29 02:50:34;;;;;;;10.20;1.75;;;;;;;17.02;38.25;98139.06;5094330;28;20048;-51
2022/05/29 02:53:07;;;;;;;18.08;2.45;;;;;;;17.11;37.98;98129.59;5094210;28;20032;-50
2022/05/29 02:55:34;;;;;;;8.23;1.58;;;;;;;17.20;37.88;98141.28;5094545;28;20039;-50
2022/05/29 02:58:03;;;;;;;13.02;2.10;;;;;;;17.10;38.22;98139.41;5092932;28;20481;-51
2022/05/29 03:00:35;;;;;;;11.00;2.10;;;;;;;17.16;38.04;98137.56;5094075;28;20039;-50
2022/05/29 03:03:34;;;;;;;14.93;2.60;;;;;;;16.93;38.53;98141.41;5092802;28;20043;-50
2022/05/29 03:06:21;;;;;;;7.85;1.63;;;;;;;16.81;38.70;98140.75;5088764;28;20075;-50
2022/05/29 03:08:57;;;;;;;32.22;4.07;;;;;;;16.66;39.16;98152.84;5093931;28;20024;-50
2022/05/29 03:11:34;;;;;;;15.05;2.42;;;;;;;16.74;39.39;98148.91;5091659;28;20032;-51
2022/05/29 03:14:28;;;;;;;6.45;1.80;;;;;;;16.95;38.87;98140.09;5092483;28;20024;-51
2022/05/29 03:16:59;;;;;;;12.30;2.10;;;;;;;16.90;38.68;98141.91;5093831;28;20020;-51
2022/05/29 03:19:34;;;;;;;9.80;2.05;;;;;;;16.88;38.82;98144.81;5093769;28;20028;-51
2022/05/29 03:22:11;;;;;;;9.57;1.95;;;;;;;16.91;39.05;98144.28;5093723;28;20456;-51
2022/05/29 03:25:12;;;;;;;26.27;2.67;;;;;;;16.99;38.92;98150.19;5093736;28;20039;-50
2022/05/29 03:27:43;;;;;;;9.70;1.70;;;;;;;16.93;38.92;98146.69;5092299;28;20386;-50
2022/05/29 03:30:21;;;;;;;9.55;2.08;;;;;;;16.93;38.99;98142.19;5093549;28;20036;-51
2022/05/29 03:32:56;;;;;;;12.02;1.88;;;;;;;16.96;39.00;98138.22;5093523;28;20085;-51
2022/05/29 03:35:32;;;;;;;13.52;2.35;;;;;;;17.01;38.87;98137.47;5092151;28;20040;-50
2022/05/29 03:38:00;;;;;;;12.50;1.92;;;;;;;17.00;38.77;98149.91;5092032;28;20020;-50
2022/05/29 03:40:28;;;;;;;13.23;2.67;;;;;;;16.84;39.06;98140.25;5091942;28;20028;-50
2022/05/29 03:42:55;;;;;;;3.85;1.73;;;;;;;16.56;39.01;98142.16;5091949;28;20024;-51
2022/05/29 03:45:22;;;;;;;6.05;1.65;;;;;;;16.37;39.74;98144.38;5093262;28;20055;-50
2022/05/29 03:47:48;;;;;;;9.02;1.60;;;;;;;16.23;40.13;98138.69;5091896;28;20498;-51
2022/05/29 03:50:17;;;;;;;13.82;2.17;;;;;;;16.21;40.06;98143.41;5093108;28;20028;-50
2022/05/29 03:52:44;;;;;;;11.35;2.15;;;;;;;16.10;40.45;98144.38;5093098;28;20048;-50
2022/05/29 03:55:11;;;;;;;12.15;1.90;;;;;;;16.15;40.68;98152.38;5092931;28;20020;-50
2022/05/29 03:57:37;;;;;;;9.35;2.00;;;;;;;16.23;40.58;98148.47;5093033;28;20542;-50
2022/05/29 04:00:05;;;;;;;5.65;1.27;;;;;;;16.27;40.52;98149.56;5092920;28;20032;-50
2022/05/29 04:02:30;;;;;;;14.45;2.75;;;;;;;16.19;40.47;98156.09;5091652;28;20043;-50
2022/05/29 04:04:56;;;;;;;10.70;1.95;;;;;;;16.14;40.57;98151.56;5091535;28;20032;-50
2022/05/29 04:12:03;;;;;;;3.85;1.20;;;;;;;16.07;41.03;98161.53;5092813;28;20044;-51
2022/05/29 04:12:57;;;;;;;16.95;3.08;;;;;;;16.05;41.17;98160.19;5092904;28;20520;-51
2022/05/29 04:15:24;;;;;;;35.22;4.18;;;;;;;16.05;41.20;98153.06;5092601;28;20024;-51
2022/05/29 04:17:49;;;;;;;9.00;1.52;;;;;;;16.05;41.33;98149.63;5091309;28;20063;-51
2022/05/29 04:20:15;;;;;;;17.35;2.33;;;;;;;16.03;41.17;98149.06;5091221;28;20121;-50
2022/05/29 04:22:41;;;;;;;21.42;2.97;;;;;;;16.08;41.22;98147.28;5091088;28;20111;-50
2022/05/29 04:25:08;;;;;;;17.33;2.60;;;;;;;16.23;40.97;98151.91;5091173;28;20042;-51
2022/05/29 04:27:34;;;;;;;15.35;2.28;;;;;;;16.54;40.57;98154.84;5091124;28;20509;-50
2022/05/29 04:30:00;;;;;;;10.88;2.47;;;;;;;17.43;39.20;98155.22;5092441;28;20028;-50
2022/05/29 04:35:10;;;;;;;13.25;3.47;;;;;;;19.27;35.50;98152.84;5092259;28;20034;-50
2022/05/29 04:37:36;;;;;;;12.57;2.20;;;;;;;19.68;34.76;98155.38;5092368;28;20405;-50
2022/05/29 04:40:01;;;;;;;6.88;1.63;;;;;;;19.94;34.01;98161.41;5092326;28;20020;-51
2022/05/29 04:42:27;;;;;;;6.25;1.85;;;;;;;20.24;33.72;98154.31;5092203;28;20031;-50
2022/05/29 04:44:54;;;;;;;7.22;1.63;;;;;;;20.37;33.36;98152.13;5092259;28;20028;-51
2022/05/29 04:47:20;;;;;;;14.60;2.92;;;;;;;20.35;33.45;98157.72;5092158;28;20024;-51
2022/05/29 04:49:45;;;;;;;12.75;2.15;;;;;;;20.29;33.46;98164.16;5092097;28;20512;-51
2022/05/29 04:52:11;;;;;;;7.40;1.52;;;;;;;20.33;33.67;98160.66;5092072;28;20355;-50
2022/05/29 04:54:39;;;;;;;11.77;2.30;;;;;;;20.86;32.96;98167.22;5090721;28;20028;-51
2022/05/29 04:57:06;;;;;;;8.57;1.60;;;;;;;21.35;31.84;98161.66;5090692;28;20481;-50
2022/05/29 04:59:33;;;;;;;13.65;2.67;;;;;;;21.78;31.17;98157.47;5090712;28;20028;-51
2022/05/29 05:02:01;;;;;;;16.95;2.60;;;;;;;22.24;30.47;98162.22;5091962;28;20028;-51
2022/05/29 05:04:27;;;;;;;5.88;1.88;;;;;;;22.52;29.84;98155.91;5090680;28;20115;-51
2022/05/29 05:06:55;;;;;;;10.57;2.42;;;;;;;23.09;29.03;98165.69;5091899;28;20441;-51
2022/05/29 05:09:22;;;;;;;12.88;2.17;;;;;;;23.70;28.37;98161.06;5090531;28;20028;-49
2022/05/29 05:11:47;;;;;;;10.73;2.00;;;;;;;23.98;27.60;98163.72;5091874;28;20016;-49
2022/05/29 05:14:13;;;;;;;10.80;1.83;;;;;;;24.28;27.51;98170.28;5091772;28;20028;-49
2022/05/29 05:16:39;;;;;;;12.85;2.25;;;;;;;24.63;26.78;98162.53;5090468;28;20028;-49
2022/05/29 05:19:04;;;;;;;9.27;1.98;;;;;;;24.86;26.58;98166.78;5091789;28;20031;-49
2022/05/29 05:21:30;;;;;;;11.40;2.45;;;;;;;25.23;26.10;98167.50;5090463;28;20032;-49
2022/05/29 05:23:56;;;;;;;10.88;1.60;;;;;;;25.69;25.50;98160.84;5090425;28;20059;-50
2022/05/29 05:26:21;;;;;;;7.88;1.83;;;;;;;26.22;24.65;98161.75;5091728;28;20034;-49
2022/05/29 05:28:47;;;;;;;11.40;2.45;;;;;;;26.61;23.98;98159.22;5090442;28;20047;-49
2022/05/29 05:31:13;;;;;;;5.53;1.42;;;;;;;26.90;23.75;98158.50;5090069;28;20417;-49
2022/05/29 05:33:39;;;;;;;8.80;2.03;;;;;;;27.04;23.17;98158.31;5092438;28;20405;-48
2022/05/29 05:36:06;;;;;;;19.65;3.30;;;;;;;26.58;24.13;98154.47;5095724;28;20103;-49
2022/05/29 05:38:32;;;;;;;16.17;2.38;;;;;;;26.82;23.60;98157.44;5095907;28;20382;-49
2022/05/29 05:40:58;;;;;;;16.20;2.58;;;;;;;27.26;23.69;98150.03;5094251;28;20027;-50
2022/05/29 05:43:27;;;;;;;8.68;2.10;;;;;;;27.63;23.25;98146.84;5095681;28;20064;-49
2022/05/29 05:45:52;;;;;;;8.52;2.10;;;;;;;28.00;22.66;98147.88;5095603;28;20103;-49
2022/05/29 05:48:18;;;;;;;8.82;1.77;;;;;;;28.35;22.28;98147.59;5095481;28;20135;-50
2022/05/29 05:50:44;;;;;;;12.00;2.75;;;;;;;28.53;21.66;98139.38;5095446;28;20028;-49
2022/05/29 05:53:09;;;;;;;8.90;2.05;;;;;;;28.58;21.57;98142.66;5095348;28;20103;-49
2022/05/29 05:55:36;;;;;;;13.35;2.17;;;;;;;28.51;21.67;98149.72;5095317;28;20031;-49
2022/05/29 05:58:03;;;;;;;8.60;2.00;;;;;;;28.51;21.60;98147.03;5095302;28;20021;-49
2022/05/29 06:00:29;;;;;;;10.18;1.90;;;;;;;28.64;21.35;98151.38;5095252;28;20028;-50
2022/05/29 06:02:55;;;;;;;10.00;2.53;;;;;;;29.14;21.00;98153.06;5095192;28;20043;-49
2022/05/29 06:05:20;;;;;;;10.27;2.28;;;;;;;28.96;21.14;98157.84;5093823;28;20031;-49
2022/05/29 06:07:50;;;;;;;6.13;1.55;;;;;;;29.21;21.02;98156.00;5095190;28;20020;-49
2022/05/29 06:10:16;;;;;;;7.60;1.70;;;;;;;29.85;20.48;98159.94;5095063;28;20123;-50
2022/05/29 06:12:42;;;;;;;6.57;2.10;;;;;;;30.19;19.89;98165.94;5095027;28;20493;-50
2022/05/29 06:15:08;;;;;;;10.07;1.98;;;;;;;30.57;19.68;98158.53;5094914;28;20027;-50
2022/05/29 06:17:34;;;;;;;10.85;1.98;;;;;;;30.54;19.47;98153.78;5094968;28;20020;-50
2022/05/29 06:20:00;;;;;;;5.68;2.13;;;;;;;30.70;19.31;98164.66;5094946;28;20028;-49
2022/05/29 06:22:27;;;;;;;11.43;2.60;;;;;;;30.93;19.04;98162.16;5094872;28;20020;-50
2022/05/29 06:24:53;;;;;;;19.65;10.38;;;;;;;31.32;18.80;98159.66;5094799;28;20043;-50
2022/05/29 06:27:18;;;;;;;10.18;3.20;;;;;;;31.66;18.47;98160.88;5095022;28;20494;-50
2022/05/29 06:29:44;;;;;;;7.20;2.65;;;;;;;31.62;17.99;98163.50;5094716;28;20024;-50
2022/05/29 06:32:15;;;;;;;10.90;2.70;;;;;;;31.55;18.60;98163.34;5093123;28;20051;-50
2022/05/29 06:34:41;;;;;;;7.70;2.03;;;;;;;31.53;18.67;98154.78;5094504;28;20073;-47
2022/05/29 06:37:07;;;;;;;7.82;3.08;;;;;;;31.62;18.50;98155.34;5094621;28;20032;-48
2022/05/29 06:39:37;;;;;;;6.72;2.10;;;;;;;31.90;18.09;98151.69;5093258;28;20024;-48
2022/05/29 06:42:04;;;;;;;4.57;1.25;;;;;;;31.98;17.75;98158.84;5093153;28;20028;-47
2022/05/29 06:44:30;;;;;;;10.23;2.47;;;;;;;32.34;17.52;98154.19;5093957;28;20024;-48
2022/05/29 06:46:56;;;;;;;11.80;1.85;;;;;;;32.89;17.50;98150.56;5092171;28;20059;-47
2022/05/29 06:49:21;;;;;;;8.50;1.60;;;;;;;33.31;17.08;98158.66;5094448;28;20013;-47
2022/05/29 06:51:47;;;;;;;6.03;1.48;;;;;;;33.29;16.33;98155.53;5094351;28;20102;-47
2022/05/29 06:54:13;;;;;;;8.27;1.63;;;;;;;33.54;16.19;98158.59;5092934;28;20058;-47
2022/05/29 06:56:39;;;;;;;9.82;2.03;;;;;;;33.79;15.99;98167.16;5094386;28;20115;-49
2022/05/29 06:59:06;;;;;;;4.97;1.42;;;;;;;34.11;15.78;98168.72;5094222;28;20059;-50
2022/05/29 07:07:03;;;;;;;7.55;1.40;;;;;;;34.35;15.24;98162.84;5094070;28;19930;-50
2022/05/29 07:09:34;;;;;;;5.45;1.27;;;;;;;34.17;15.78;98159.91;5094020;28;20035;-50
2022/05/29 07:12:11;;;;;;;9.73;1.73;;;;;;;34.24;15.31;98161.16;5094150;28;20020;-49
2022/05/29 07:14:50;;;;;;;14.63;1.88;;;;;;;34.19;15.85;98148.66;5092513;28;20028;-50
2022/05/29 07:17:18;;;;;;;10.07;1.50;;;;;;;33.67;16.09;98150.28;5093897;28;20024;-48
2022/05/29 07:19:45;;;;;;;4.00;1.25;;;;;;;33.40;15.94;98163.84;5093822;28;20020;-48
2022/05/29 07:22:12;;;;;;;6.60;1.80;;;;;;;33.00;16.08;98157.75;5093609;28;20093;-48
2022/05/29 07:24:39;;;;;;;8.77;1.33;;;;;;;32.56;16.71;98157.31;5092379;28;20027;-49
2022/05/29 07:27:06;;;;;;;5.78;1.70;;;;;;;32.00;17.59;98162.03;5094088;28;20028;-49
2022/05/29 07:29:32;;;;;;;6.68;1.60;;;;;;;31.43;17.74;98158.78;5092312;28;20058;-48
2022/05/29 07:31:58;;;;;;;5.72;1.63;;;;;;;30.97;18.36;98160.34;5092025;28;20054;-48
2022/05/29 07:34:24;;;;;;;5.40;1.38;;;;;;;30.48;18.84;98155.16;5093410;28;20489;-48
2022/05/29 07:36:51;;;;;;;8.57;1.50;;;;;;;30.39;19.19;98158.81;5093419;28;20020;-49
2022/05/29 07:39:19;;;;;;;6.57;1.50;;;;;;;30.44;19.37;98166.66;5093450;28;20020;-49
2022/05/29 07:44:29;;;;;;;7.70;1.92;;;;;;;31.22;19.01;98142.78;5093581;28;20038;-48
2022/05/29 07:46:56;;;;;;;6.53;1.20;;;;;;;31.36;19.01;98142.31;5093212;28;20031;-48
2022/05/29 07:49:22;;;;;;;4.28;1.20;;;;;;;31.81;18.36;98148.38;5093161;28;20044;-48
2022/05/29 07:51:49;;;;;;;6.78;2.00;;;;;;;32.45;17.57;98148.94;5091788;28;20070;-47
2022/05/29 07:54:15;;;;;;;5.75;1.50;;;;;;;33.28;16.67;98137.63;5093061;28;20020;-47
2022/05/29 07:56:41;;;;;;;3.38;1.40;;;;;;;33.83;16.50;98137.28;5091346;28;20516;-47
2022/05/29 07:59:07;;;;;;;2.58;1.30;;;;;;;33.91;16.37;98141.66;5092907;28;20016;-47
2022/05/29 08:01:33;;;;;;;4.32;1.10;;;;;;;34.01;15.79;98135.56;5092931;28;20020;-48
2022/05/29 08:03:59;;;;;;;6.80;1.70;;;;;;;33.92;16.17;98143.22;5092974;28;20039;-49
2022/05/29 08:06:25;;;;;;;4.32;1.60;;;;;;;33.92;16.39;98132.34;5091546;28;20028;-49
2022/05/29 08:08:50;;;;;;;5.95;1.58;;;;;;;33.97;16.44;98129.28;5091513;28;20031;-49
2022/05/29 08:11:17;;;;;;;6.32;1.60;;;;;;;34.49;15.86;98123.28;5091426;28;20032;-47
2022/05/29 08:13:44;;;;;;;5.53;1.60;;;;;;;35.25;15.23;98119.34;5091322;28;20424;-48
2022/05/29 08:16:11;;;;;;;4.00;1.45;;;;;;;35.76;14.69;98118.50;5092886;28;20400;-47
2022/05/29 08:18:37;;;;;;;9.05;2.00;;;;;;;36.10;14.44;98112.78;5092713;28;20510;-47
2022/05/29 08:21:03;;;;;;;6.68;1.77;;;;;;;36.25;14.42;98117.16;5092572;28;20398;-47
2022/05/29 08:23:28;;;;;;;7.13;1.40;;;;;;;36.61;14.12;98117.25;5091341;28;20031;-47
2022/05/29 08:31:24;;;;;;;5.25;2.65;;;;;;;36.45;14.10;98114.09;5092238;28;20047;-49
2022/05/29 08:33:50;;;;;;;7.00;1.75;;;;;;;36.37;14.04;98124.22;5092278;28;20044;-47
2022/05/29 08:36:24;;;;;;;4.97;1.15;;;;;;;36.39;14.02;98128.13;5092283;28;20044;-49
2022/05/29 08:38:52;;;;;;;5.60;1.30;;;;;;;36.55;14.08;98119.56;5092316;28;20035;-47
2022/05/29 08:41:38;;;;;;;4.07;1.33;;;;;;;36.63;13.87;98111.41;5092234;28;20031;-48
2022/05/29 08:44:09;;;;;;;2.78;1.23;;;;;;;36.75;13.83;98109.09;5092303;28;20024;-47
2022/05/29 08:46:42;;;;;;;4.50;1.58;;;;;;;36.54;13.99;98107.09;5092282;28;20038;-47
2022/05/29 08:49:21;;;;;;;3.92;1.30;;;;;;;36.70;13.86;98105.94;5092177;28;20639;-49
2022/05/29 08:52:04;;;;;;;7.35;1.70;;;;;;;36.98;13.66;98110.63;5092107;28;20111;-49
2022/05/29 08:54:47;;;;;;;3.45;1.20;;;;;;;36.95;13.42;98093.06;5092065;28;20060;-50
2022/05/29 08:57:29;;;;;;;5.50;1.50;;;;;;;36.43;14.00;98089.09;5090790;28;20122;-49
2022/05/29 09:00:01;;;;;;;8.82;1.50;;;;;;;35.85;13.88;98090.84;5091999;28;20034;-49
2022/05/29 09:02:59;;;;;;;5.10;1.52;;;;;;;35.61;14.35;98082.13;5090703;28;20123;-49
2022/05/29 09:05:46;;;;;;;6.13;1.30;;;;;;;35.61;14.54;98087.59;5091998;28;20434;-48
2022/05/29 09:08:23;;;;;;;5.50;1.23;;;;;;;35.60;14.64;98084.06;5091134;28;20111;-49
2022/05/29 09:10:58;;;;;;;5.20;1.42;;;;;;;35.37;14.48;98078.09;5091986;28;20443;-48
2022/05/29 09:14:04;;;;;;;3.55;1.17;;;;;;;35.61;14.48;98085.63;5090548;28;20039;-47
2022/05/29 09:16:37;;;;;;;3.25;1.27;;;;;;;35.15;14.16;98088.06;5060917;28;20115;-46
2022/05/29 09:19:30;;;;;;;5.70;1.52;;;;;;;34.58;14.85;98082.91;5091877;28;20054;-48
2022/05/29 09:22:01;;;;;;;4.70;1.10;;;;;;;34.64;14.85;98083.34;5091868;28;20032;-47
2022/05/29 09:24:46;;;;;;;6.18;1.25;;;;;;;34.43;14.91;98090.16;5090540;28;20405;-47
2022/05/29 09:27:12;;;;;;;8.02;1.95;;;;;;;34.40;15.21;98078.03;5090484;28;20031;-47
2022/05/29 09:29:38;;;;;;;3.92;1.27;;;;;;;34.66;15.33;98090.00;5090399;28;20040;-47
2022/05/29 09:32:09;;;;;;;5.95;1.48;;;;;;;34.57;15.36;98073.94;5091411;28;20054;-47
2022/05/29 09:34:35;;;;;;;3.55;1.55;;;;;;;34.86;14.89;98067.97;5091653;28;20063;-48
2022/05/29 09:37:12;;;;;;;4.85;1.27;;;;;;;34.93;14.81;98068.00;5090317;28;20067;-47
2022/05/29 09:39:44;;;;;;;5.25;1.40;;;;;;;34.69;15.05;98067.47;5091738;28;20024;-46
2022/05/29 09:42:19;;;;;;;5.13;1.20;;;;;;;34.79;14.92;98057.78;5091651;28;20028;-47
2022/05/29 09:45:22;;;;;;;3.78;1.50;;;;;;;34.57;14.75;98029.53;5091668;28;20034;-47
2022/05/29 09:50:56;;;;;;;5.72;1.50;;;;;;;33.35;15.09;98049.91;5091841;28;20161;-47
2022/05/29 09:53:31;;;;;;;3.83;1.10;;;;;;;33.07;15.31;98042.88;5091490;28;20056;-46
2022/05/29 09:56:06;;;;;;;5.55;1.52;;;;;;;32.62;15.57;98044.50;5091550;28;20025;-47
2022/05/29 09:59:18;;;;;;;7.88;1.40;;;;;;;32.74;16.17;98057.91;5091477;28;20047;-47
2022/05/29 10:01:47;;;;;;;9.02;1.35;;;;;;;32.75;15.88;98040.44;5028917;28;20018;-48
2022/05/29 10:04:28;;;;;;;7.40;1.40;;;;;;;32.74;15.58;98049.75;5029069;28;20034;-46
2022/05/29 10:06:58;;;;;;;9.82;1.70;;;;;;;32.30;16.28;98049.31;5029039;28;20048;-47
2022/05/29 10:09:26;;;;;;;5.70;1.10;;;;;;;32.36;15.46;98043.25;5029048;28;20037;-47
2022/05/29 10:12:14;;;;;;;7.68;1.30;;;;;;;32.53;15.50;98043.94;5028868;28;20025;-47
2022/05/29 10:14:42;;;;;;;3.67;1.30;;;;;;;32.77;15.96;98032.72;5029004;28;20130;-48
2022/05/29 10:17:35;;;;;;;6.25;1.25;;;;;;;32.89;15.42;98039.09;5028993;28;20026;-47
2022/05/29 10:20:01;;;;;;;5.80;1.40;;;;;;;32.53;15.12;98039.28;5028569;28;20038;-47
2022/05/29 10:22:41;;;;;;;3.05;1.00;;;;;;;32.33;15.41;98045.91;5015955;28;20574;-47
2022/05/29 10:25:21;;;;;;;2.75;1.13;;;;;;;32.77;15.29;98034.66;5032436;28;20045;-47
2022/05/29 10:27:50;;;;;;;2.83;1.13;;;;;;;32.72;15.40;98033.03;5032482;28;20164;-46
2022/05/29 10:30:53;;;;;;;4.55;1.20;;;;;;;32.51;15.87;98029.91;5032292;28;20398;-47
2022/05/29 10:33:22;;;;;;;6.90;1.60;;;;;;;32.37;16.04;98014.16;5088443;28;20799;-47
2022/05/29 10:35:51;;;;;;;5.38;1.45;;;;;;;32.56;15.67;98030.44;5094559;28;20509;-46
2022/05/29 10:38:19;;;;;;;4.85;1.35;;;;;;;32.58;15.42;98027.38;5094612;28;20028;-47
2022/05/29 10:40:51;;;;;;;7.80;1.42;;;;;;;32.57;15.33;98023.06;5094516;28;20031;-47
2022/05/29 10:43:54;;;;;;;4.43;1.13;;;;;;;32.37;15.34;98014.94;5094540;28;20520;-45
2022/05/29 10:46:37;;;;;;;7.47;1.40;;;;;;;32.61;15.09;98013.03;5063219;28;20391;-47
2022/05/29 10:49:25;;;;;;;6.65;1.08;;;;;;;32.79;15.42;97995.09;5094425;28;20028;-46
2022/05/29 10:52:09;;;;;;;7.90;1.10;;;;;;;32.79;14.55;97991.59;5094625;28;20400;-47
2022/05/29 10:55:05;;;;;;;4.40;1.10;;;;;;;32.35;15.14;97997.44;5094251;28;20070;-47
2022/05/29 10:58:02;;;;;;;4.38;1.20;;;;;;;32.09;15.77;98006.28;5094219;28;20038;-46
2022/05/29 11:01:03;;;;;;;5.80;1.08;;;;;;;31.92;15.97;97983.09;5094273;28;20051;-47
2022/05/29 11:03:35;;;;;;;7.18;1.30;;;;;;;31.51;16.62;97988.88;5093153;28;20016;-47
2022/05/29 11:06:29;;;;;;;3.35;1.05;;;;;;;31.29;16.93;97994.94;5094035;28;20038;-47
2022/05/29 11:09:32;;;;;;;5.55;1.00;;;;;;;31.73;16.54;97975.72;5092740;28;20039;-48
2022/05/29 11:12:17;;;;;;;1.92;0.60;;;;;;;31.60;16.25;97988.66;5092512;28;20471;-48
2022/05/29 11:14:53;;;;;;;3.50;0.95;;;;;;;31.34;16.35;97983.84;5093852;28;20016;-48
2022/05/29 11:17:51;;;;;;;6.60;0.90;;;;;;;31.31;16.13;97979.13;5093876;28;20039;-48
2022/05/29 11:20:47;;;;;;;5.25;1.10;;;;;;;31.33;16.41;97984.97;5093748;28;20035;-48
2022/05/29 11:23:25;;;;;;;4.43;1.20;;;;;;;31.56;16.42;97987.81;5093779;28;20466;-47
2022/05/29 11:26:22;;;;;;;3.72;1.20;;;;;;;31.60;16.62;97978.59;5093708;28;20483;-46
2022/05/29 11:29:15;;;;;;;5.43;1.20;;;;;;;31.77;16.21;97969.22;5093698;28;20110;-48
2022/05/29 11:32:01;;;;;;;6.57;1.08;;;;;;;32.02;16.58;97972.44;5092566;28;20075;-49
2022/05/29 11:34:36;;;;;;;3.00;0.75;;;;;;;32.59;15.51;97975.38;5093515;28;20027;-49
2022/05/29 11:37:32;;;;;;;3.65;1.30;;;;;;;32.80;15.28;97977.63;5092210;28;20118;-47
2022/05/29 11:40:21;;;;;;;2.85;1.05;;;;;;;32.61;15.19;97975.78;5093483;28;20024;-47
2022/05/29 11:42:59;;;;;;;10.30;1.20;;;;;;;32.48;15.29;97970.88;5051299;28;20028;-47
2022/05/29 11:51:25;;;;;;;5.40;1.10;;;;;;;31.92;15.47;97967.56;5093511;28;20039;-47
2022/05/29 11:54:26;;;;;;;3.80;1.00;;;;;;;32.38;15.46;97956.78;5093066;28;20031;-47
2022/05/29 11:57:03;;;;;;;4.95;1.67;;;;;;;32.14;15.37;97952.50;5093154;28;20046;-48
2022/05/29 12:00:07;;;;;;;3.55;1.10;;;;;;;31.90;15.29;97931.88;5093114;28;20035;-47
2022/05/29 12:03:14;;;;;;;6.00;1.10;;;;;;;31.57;15.98;97945.97;5093242;28;20032;-47
2022/05/29 12:05:45;;;;;;;5.35;1.75;;;;;;;31.41;15.98;97954.16;5060544;28;20040;-49
2022/05/29 12:08:19;;;;;;;4.30;1.00;;;;;;;31.53;15.22;97948.63;5093223;28;20096;-47
2022/05/29 12:11:21;;;;;;;3.95;1.00;;;;;;;31.85;14.70;97949.25;5092836;28;20055;-48
2022/05/29 12:14:05;;;;;;;2.83;0.88;;;;;;;31.94;14.44;97938.16;5092767;28;20103;-47
2022/05/29 12:16:35;;;;;;;2.95;1.02;;;;;;;31.82;15.62;97924.75;5092808;28;20060;-48
2022/05/29 12:19:15;;;;;;;3.05;1.15;;;;;;;31.81;15.43;97915.84;5092712;28;20039;-48
2022/05/29 12:21:52;;;;;;;5.72;1.00;;;;;;;31.66;15.68;97919.41;5092897;28;20095;-46
2022/05/29 12:24:28;;;;;;;7.38;1.30;;;;;;;31.29;16.34;97919.84;5092660;28;20031;-47
2022/05/29 12:27:11;;;;;;;4.43;1.30;;;;;;;31.04;15.69;97925.50;5092489;28;20055;-46
2022/05/29 12:29:52;;;;;;;2.13;0.98;;;;;;;30.77;16.10;97919.09;5092496;28;20493;-46
2022/05/29 12:32:22;;;;;;;2.70;1.08;;;;;;;30.41;16.76;97923.69;5096266;28;20178;-47